.
WxDataArchive / Data Records for 2006-04-25
2006-04-24 April 2006 2006-04-26

Data Records for Tuesday, 25 April 2006

Time	Temp	Chill	HIndex	Humid	Dewpt	 Wind 	HiWind	WindDir	Rain 	Barom 
-----	----	-----	------	-----	-----	------	------	-------	-----	----- 
00:00	49.5	49.5	49.5	79	43.3	0	0	---	0.00	29.862 
00:05	49.2	49.2	49.2	80	43.3	0	0	---	0.00	29.862 
00:10	49.1	49.1	49.1	81	43.5	0	0	---	0.00	29.862 
00:15	49.1	49.1	49.1	82	43.8	0	0	---	0.00	29.856 
00:20	48.9	48.9	48.9	82	43.6	0	0	---	0.00	29.856 
00:25	48.8	48.8	48.8	82	43.6	0	0	---	0.00	29.856 
00:30	48.6	48.6	48.6	83	43.7	0	0	---	0.00	29.850 
00:35	48.3	48.3	48.3	84	43.7	0	0	---	0.00	29.850 
00:40	48.3	48.3	48.3	84	43.7	0	0	---	0.00	29.850 
00:45	48.2	48.2	48.2	84	43.6	0	0	---	0.00	29.854 
00:50	48.3	48.3	48.3	84	43.7	0	0	---	0.00	29.854 
00:55	48.5	48.5	48.5	84	43.9	0	0	---	0.00	29.854 
01:00	48.6	48.6	48.6	84	44.0	0	0	---	0.00	29.849 
01:05	48.8	48.8	48.8	83	43.9	0	0	---	0.00	29.849 
01:10	48.8	48.8	48.8	84	44.2	0	0	---	0.00	29.849 
01:15	49.1	49.1	49.1	83	44.2	0	0	---	0.00	29.842 
01:20	49.2	49.2	49.2	82	43.9	0	0	---	0.00	29.842 
01:25	49.2	49.2	49.2	82	43.9	0	0	---	0.00	29.842 
01:30	49.1	49.1	49.1	82	43.8	0	0	---	0.00	29.834 
01:35	48.9	48.9	48.9	82	43.6	0	0	---	0.00	29.834 
01:40	48.9	48.9	48.9	83	44.0	0	0	---	0.00	29.834 
01:45	48.9	48.9	48.9	83	44.0	0	0	---	0.00	29.830 
01:50	48.9	48.9	48.9	83	44.0	0	0	---	0.00	29.830 
01:55	48.9	48.9	48.9	83	44.0	0	0	---	0.00	29.830 
02:00	48.9	48.9	48.9	83	44.0	0	0	---	0.00	29.824 
02:05	48.8	48.8	48.8	83	43.9	0	0	---	0.00	29.824 
02:10	48.8	48.8	48.8	83	43.9	0	0	---	0.00	29.824 
02:15	48.6	48.6	48.6	83	43.7	0	0	---	0.00	29.811 
02:20	48.6	48.6	48.6	83	43.7	0	0	---	0.00	29.811 
02:25	48.5	48.5	48.5	83	43.6	0	0	---	0.00	29.811 
02:30	48.3	48.3	48.3	83	43.4	0	0	---	0.00	29.804 
02:35	48.2	48.2	48.2	84	43.6	0	0	---	0.00	29.804 
02:40	48.0	48.0	48.0	84	43.4	0	0	---	0.00	29.804 
02:45	47.9	47.9	47.9	84	43.3	0	0	---	0.00	29.797 
02:50	47.9	47.9	47.9	85	43.6	0	0	---	0.00	29.797 
02:55	47.9	47.9	47.9	85	43.6	0	0	---	0.00	29.797 
03:00	47.9	47.9	47.9	85	43.6	0	0	---	0.00	29.795 
03:05	48.0	48.0	48.0	85	43.7	0	0	---	0.00	29.795 
03:10	48.2	48.2	48.2	85	43.9	0	0	---	0.00	29.795 
03:15	48.5	48.5	48.5	85	44.2	0	0	---	0.00	29.794 
03:20	48.6	48.6	48.6	84	44.0	0	0	---	0.00	29.794 
03:25	48.8	48.8	48.8	84	44.2	0	0	---	0.00	29.794 
03:30	48.9	48.9	48.9	84	44.3	0	0	---	0.00	29.794 
03:35	49.1	49.1	49.1	84	44.5	0	0	---	0.00	29.794 
03:40	49.2	49.2	49.2	83	44.3	0	0	---	0.00	29.794 
03:45	49.4	49.4	49.4	83	44.5	0	0	---	0.00	29.793 
03:50	49.6	49.6	49.6	82	44.3	0	0	---	0.00	29.793 
03:55	49.9	49.9	49.9	81	44.3	0	0	---	0.00	29.793 
04:00	50.1	50.1	50.1	80	44.2	0	0	---	0.00	29.796 
04:05	50.2	50.2	50.2	79	43.9	0	0	---	0.00	29.796 
04:10	50.2	50.2	50.2	79	43.9	0	0	---	0.00	29.796 
04:15	50.1	50.1	50.1	79	43.8	0	0	---	0.00	29.792 
04:20	49.9	49.9	49.9	79	43.6	0	0	---	0.00	29.792 
04:25	49.8	49.8	49.8	79	43.6	0	0	---	0.00	29.792 
04:30	49.5	49.5	49.5	79	43.3	0	0	---	0.00	29.785 
04:35	49.4	49.4	49.4	80	43.5	0	0	---	0.00	29.785 
04:40	49.2	49.2	49.2	80	43.3	0	0	---	0.00	29.785 
04:45	48.9	48.9	48.9	80	43.0	0	0	---	0.00	29.777 
04:50	48.6	48.6	48.6	81	43.0	0	0	---	0.00	29.777 
04:55	48.2	48.2	48.2	82	43.0	0	0	---	0.00	29.777 
05:00	47.9	47.9	47.9	82	42.7	0	0	---	0.00	29.792 
05:05	48.3	48.3	48.3	82	43.1	1	3	315	0.00	29.792 
05:10	49.8	49.8	49.8	79	43.6	0	2	270	0.00	29.792 
05:15	51.4	51.4	51.4	76	44.1	0	2	292	0.00	29.809 
05:20	51.9	51.9	51.9	74	43.9	0	2	270	0.00	29.809 
05:25	52.2	52.2	52.2	73	43.8	0	1	270	0.00	29.809 
05:30	52.2	52.2	52.2	73	43.8	0	1	270	0.00	29.807 
05:35	52.2	52.2	52.2	72	43.4	0	1	270	0.00	29.807 
05:40	52.0	52.0	52.0	73	43.6	0	1	270	0.00	29.807 
05:45	52.0	52.0	52.0	73	43.6	0	1	270	0.00	29.812 
05:50	51.9	51.9	51.9	73	43.5	0	0	---	0.00	29.812 
05:55	51.6	51.6	51.6	73	43.2	0	0	---	0.00	29.812 
06:00	51.4	51.4	51.4	73	43.0	0	1	270	0.00	29.821 
06:05	51.3	51.3	51.3	73	42.9	0	1	270	0.00	29.821 
06:10	51.1	51.1	51.1	73	42.7	0	0	---	0.00	29.821 
06:15	51.0	51.0	51.0	73	42.7	0	0	---	0.00	29.819 
06:20	50.8	50.8	50.8	73	42.5	0	0	---	0.00	29.819 
06:25	50.5	50.5	50.5	74	42.5	0	0	---	0.00	29.819 
06:30	50.2	50.2	50.2	74	42.2	0	0	---	0.00	29.826 
06:35	50.1	50.1	50.1	75	42.5	0	0	---	0.00	29.826 
06:40	50.4	50.4	50.4	75	42.8	0	1	270	0.00	29.826 
06:45	50.7	50.7	50.7	74	42.7	0	1	270	0.00	29.840 
06:50	51.0	51.0	51.0	73	42.7	0	2	22	0.00	29.840 
06:55	51.1	51.1	51.1	73	42.7	0	1	22	0.00	29.840 
07:00	51.3	51.3	51.3	73	42.9	0	1	22	0.00	29.844 
07:05	51.4	51.4	51.4	74	43.4	0	3	45	0.00	29.844 
07:10	51.6	51.6	51.6	75	43.9	1	4	0	0.00	29.844 
07:15	51.6	51.6	51.6	75	43.9	1	4	90	0.00	29.858 
07:20	51.3	51.3	51.3	75	43.6	1	4	0	0.00	29.858 
07:25	51.1	51.1	51.1	75	43.5	1	5	338	0.00	29.858 
07:30	51.0	51.0	51.0	76	43.7	1	3	0	0.00	29.880 
07:35	50.7	50.7	50.7	76	43.4	1	5	0	0.00	29.880 
07:40	50.5	50.5	50.5	76	43.2	1	4	45	0.00	29.880 
07:45	50.4	50.4	50.4	76	43.1	1	6	135	0.00	29.891 
07:50	50.4	50.4	50.4	75	42.8	1	6	338	0.00	29.891 
07:55	50.2	50.2	50.2	76	42.9	1	3	338	0.00	29.891 
08:00	50.2	50.2	50.2	74	42.2	1	4	315	0.00	29.889 
08:05	50.1	50.1	50.1	76	42.8	1	5	45	0.00	29.889 
08:10	49.9	49.9	49.9	76	42.6	1	2	315	0.00	29.889 
08:15	49.9	49.9	49.9	75	42.3	2	9	45	0.00	29.897 
08:20	49.8	49.8	49.8	75	42.2	1	3	90	0.00	29.897 
08:25	49.9	49.9	49.9	75	42.3	1	9	45	0.00	29.897 
08:30	49.9	49.9	49.9	76	42.6	0	3	68	0.00	29.904 
08:35	49.9	49.9	49.9	76	42.6	1	4	135	0.00	29.904 
08:40	50.1	50.1	50.1	75	42.5	1	3	0	0.00	29.904 
08:45	50.2	50.2	50.2	74	42.2	2	5	45	0.00	29.902 
08:50	50.4	50.4	50.4	74	42.4	1	4	90	0.00	29.902 
08:55	50.4	50.4	50.4	73	42.1	2	6	90	0.00	29.902 
09:00	50.4	50.4	50.4	74	42.4	1	5	45	0.00	29.912 
09:05	50.2	50.2	50.2	73	41.9	2	5	338	0.00	29.912 
09:10	50.2	50.2	50.2	75	42.6	1	3	45	0.00	29.912 
09:15	50.2	50.2	50.2	74	42.2	1	4	22	0.00	29.913 
09:20	50.1	50.1	50.1	73	41.8	2	4	90	0.00	29.913 
09:25	50.1	50.1	50.1	74	42.1	2	7	90	0.00	29.913 
09:30	50.2	50.2	50.2	74	42.2	1	4	90	0.00	29.913 
09:35	50.2	50.2	50.2	73	41.9	2	5	68	0.00	29.913 
09:40	50.2	50.2	50.2	73	41.9	1	3	112	0.00	29.913 
09:45	50.4	50.4	50.4	74	42.4	2	6	45	0.00	29.903 
09:50	50.4	50.4	50.4	73	42.1	1	6	90	0.00	29.903 
09:55	50.2	50.2	50.2	73	41.9	1	4	22	0.00	29.903 
10:00	49.9	49.9	49.9	73	41.6	2	5	45	0.00	29.910 
10:05	49.8	49.8	49.8	73	41.5	1	5	45	0.00	29.910 
10:10	49.9	49.9	49.9	73	41.6	1	5	45	0.00	29.910 
10:15	49.8	49.8	49.8	73	41.5	1	3	45	0.00	29.920 
10:20	49.5	49.5	49.5	73	41.2	1	5	45	0.00	29.920 
10:25	49.2	49.2	49.2	74	41.3	1	4	45	0.00	29.920 
10:30	48.8	48.8	48.8	74	40.9	1	5	22	0.00	29.929 
10:35	48.6	48.6	48.6	74	40.7	3	12	90	0.00	29.929 
10:40	48.5	48.5	48.5	74	40.6	2	6	45	0.00	29.929 
10:45	48.5	48.5	48.5	76	41.3	1	3	112	0.00	29.937 
10:50	47.9	47.9	47.9	76	40.7	1	2	0	0.00	29.937 
10:55	47.4	47.4	47.4	78	40.9	1	6	22	0.00	29.937 
11:00	47.3	47.3	47.3	79	41.1	1	4	158	0.00	29.935 
11:05	47.0	47.0	47.0	79	40.8	2	6	68	0.00	29.935 
11:10	47.0	47.0	47.0	81	41.5	2	6	112	0.00	29.935 
11:15	46.8	46.8	46.8	83	41.9	2	7	45	0.00	29.924 
11:20	46.4	46.4	46.4	82	41.2	2	5	45	0.01	29.924 
11:25	45.7	45.7	45.7	82	40.5	1	5	45	0.00	29.924 
11:30	44.8	44.8	44.8	83	40.0	1	5	338	0.00	29.939 
11:35	44.2	44.2	44.2	84	39.7	1	4	0	0.00	29.939 
11:40	44.1	44.1	44.1	85	39.9	1	4	45	0.00	29.939 
11:45	43.8	43.8	43.8	84	39.3	1	4	0	0.00	29.955 
11:50	43.5	43.5	43.5	84	39.0	2	9	22	0.00	29.955 
11:55	43.3	43.3	43.3	85	39.1	1	4	45	0.00	29.955 
12:00	43.1	43.1	43.1	84	38.6	1	4	0	0.00	29.971 
12:05	42.9	42.9	42.9	85	38.7	1	4	338	0.00	29.971 
12:10	42.8	42.8	42.8	86	38.9	1	4	22	0.00	29.971 
12:15	42.6	42.6	42.6	87	39.0	1	4	45	0.00	29.974 
12:20	42.5	42.5	42.5	87	38.9	1	3	45	0.00	29.974 
12:25	42.3	42.3	42.3	87	38.7	0	2	135	0.00	29.974 
12:30	42.3	42.3	42.3	87	38.7	1	3	45	0.00	29.979 
12:35	42.2	42.2	42.2	87	38.6	1	6	45	0.01	29.979 
12:40	42.2	42.2	42.2	88	38.9	1	6	45	0.00	29.979 
12:45	42.1	42.1	42.1	88	38.8	1	3	45	0.00	29.996 
12:50	41.9	41.9	41.9	88	38.6	0	3	68	0.01	29.996 
12:55	41.9	41.9	41.9	89	38.9	0	3	68	0.01	29.996 
13:00	41.8	41.8	41.8	89	38.8	1	4	90	0.01	30.004 
13:05	41.8	41.8	41.8	90	39.1	1	5	68	0.00	30.004 
13:10	41.6	41.6	41.6	90	38.9	1	2	315	0.02	30.004 
13:15	41.3	41.3	41.3	89	38.3	1	6	22	0.01	30.013 
13:20	40.9	40.9	40.9	89	37.9	1	3	0	0.01	30.013 
13:25	40.8	40.8	40.8	90	38.1	1	4	45	0.00	30.013 
13:30	40.6	40.6	40.6	90	37.9	2	5	68	0.00	30.000 
13:35	40.5	40.5	40.5	89	37.5	2	7	45	0.01	30.000 
13:40	40.3	40.3	40.3	89	37.3	2	7	22	0.00	30.000 
13:45	40.2	40.2	40.2	89	37.2	2	7	22	0.00	30.002 
13:50	40.2	40.2	40.2	89	37.2	3	8	68	0.00	30.002 
13:55	40.3	40.3	40.3	90	37.6	2	5	45	0.01	30.002 
14:00	40.2	40.2	40.2	89	37.2	1	11	68	0.00	30.006 
14:05	40.2	40.2	40.2	89	37.2	3	5	112	0.01	30.006 
14:10	40.2	40.2	40.2	90	37.5	1	4	90	0.01	30.006 
14:15	40.3	40.3	40.3	90	37.6	1	3	158	0.00	30.006 
14:20	40.5	40.5	40.5	91	38.1	1	4	68	0.01	30.006 
14:25	40.5	40.5	40.5	90	37.8	3	10	112	0.01	30.006 
14:30	40.5	40.5	40.5	90	37.8	3	6	45	0.00	29.992 
14:35	40.6	40.6	40.6	90	37.9	3	7	90	0.01	29.992 
14:40	40.6	40.6	40.6	89	37.6	3	9	112	0.00	29.992 
14:45	40.9	40.9	40.9	90	38.2	2	4	112	0.00	29.991 
14:50	41.1	41.1	41.1	90	38.4	2	9	90	0.00	29.991 
14:55	41.1	41.1	41.1	89	38.1	3	9	112	0.00	29.991 
15:00	40.8	38.2	40.8	88	37.5	4	10	112	0.00	29.991 
15:05	40.8	40.8	40.8	89	37.8	2	5	22	0.00	29.991 
15:10	40.8	40.8	40.8	89	37.8	2	6	22	0.01	29.991 
15:15	41.1	41.1	41.1	90	38.4	1	4	90	0.00	29.982 
15:20	41.2	41.2	41.2	90	38.5	2	6	112	0.00	29.982 
15:25	41.1	41.1	41.1	88	37.8	3	7	90	0.00	29.982 
15:30	41.2	41.2	41.2	90	38.5	2	4	112	0.01	29.992 
15:35	41.2	41.2	41.2	89	38.2	2	6	22	0.00	29.992 
15:40	41.2	41.2	41.2	89	38.2	2	6	68	0.00	29.992 
15:45	41.3	41.3	41.3	89	38.3	2	6	112	0.00	29.992 
15:50	41.5	41.5	41.5	89	38.5	2	6	112	0.00	29.992 
15:55	41.5	41.5	41.5	88	38.2	3	7	112	0.00	29.992 
16:00	41.8	41.8	41.8	89	38.8	1	7	90	0.00	29.993 
16:05	41.6	41.6	41.6	88	38.3	2	5	90	0.01	29.993 
16:10	41.8	41.8	41.8	88	38.5	2	5	45	0.00	29.993 
16:15	41.6	41.6	41.6	87	38.0	2	7	68	0.00	29.998 
16:20	41.9	41.9	41.9	88	38.6	2	6	90	0.00	29.998 
16:25	42.1	42.1	42.1	88	38.8	2	6	45	0.00	29.998 
16:30	42.2	42.2	42.2	87	38.6	2	5	45	0.00	29.986 
16:35	42.5	42.5	42.5	87	38.9	2	9	112	0.00	29.986 
16:40	42.8	42.8	42.8	85	38.6	3	6	68	0.00	29.986 
16:45	43.1	43.1	43.1	85	38.9	3	8	68	0.00	29.979 
16:50	43.1	40.9	43.1	84	38.6	4	9	68	0.00	29.979 
16:55	43.3	43.3	43.3	84	38.8	2	6	90	0.00	29.979 
17:00	43.8	43.8	43.8	84	39.3	2	7	90	0.00	29.974 
17:05	43.8	43.8	43.8	82	38.7	2	6	90	0.00	29.974 
17:10	44.1	44.1	44.1	81	38.6	2	6	90	0.00	29.974 
17:15	44.1	44.1	44.1	81	38.6	3	7	112	0.00	29.977 
17:20	43.9	43.9	43.9	81	38.5	3	9	90	0.00	29.977 
17:25	44.1	44.1	44.1	80	38.3	2	4	90	0.00	29.977 
17:30	44.1	44.1	44.1	77	37.4	2	6	90	0.00	29.984 
17:35	44.2	44.2	44.2	75	36.8	3	6	90	0.00	29.984 
17:40	44.2	44.2	44.2	75	36.8	3	7	90	0.00	29.984 
17:45	44.3	44.3	44.3	76	37.2	2	6	68	0.00	29.989 
17:50	44.5	44.5	44.5	74	36.7	2	7	112	0.00	29.989 
17:55	44.6	44.6	44.6	73	36.5	2	6	135	0.00	29.989 
18:00	44.8	44.8	44.8	72	36.3	2	7	90	0.00	29.987 
18:05	44.6	44.6	44.6	73	36.5	2	7	112	0.00	29.987 
18:10	44.6	44.6	44.6	72	36.1	1	4	112	0.00	29.987 
18:15	45.1	45.1	45.1	72	36.6	1	3	112	0.00	29.988 
18:20	45.1	45.1	45.1	71	36.3	2	4	22	0.00	29.988 
18:25	45.2	45.2	45.2	69	35.6	2	6	90	0.00	29.988 
18:30	45.4	45.4	45.4	67	35.1	2	4	90	0.00	29.986 
18:35	45.7	45.7	45.7	65	34.6	2	6	45	0.00	29.986 
18:40	45.8	45.8	45.8	66	35.1	1	5	90	0.00	29.986 
18:45	46.1	46.1	46.1	65	35.0	1	4	45	0.00	29.987 
18:50	46.2	46.2	46.2	65	35.1	1	5	45	0.00	29.987 
18:55	46.4	46.4	46.4	61	33.7	3	5	90	0.00	29.987 
19:00	46.2	46.2	46.2	65	35.1	2	6	90	0.00	29.990 
19:05	46.2	46.2	46.2	65	35.1	2	5	112	0.00	29.990 
19:10	46.2	46.2	46.2	65	35.1	1	4	90	0.00	29.990 
19:15	46.4	46.4	46.4	64	34.9	1	4	90	0.00	29.989 
19:20	46.2	46.2	46.2	64	34.7	3	9	90	0.00	29.989 
19:25	46.1	46.1	46.1	64	34.6	1	4	68	0.00	29.989 
19:30	46.0	46.0	46.0	65	34.9	1	3	90	0.00	29.985 
19:35	45.8	45.8	45.8	63	33.9	2	5	112	0.00	29.985 
19:40	45.8	45.8	45.8	66	35.1	2	5	90	0.00	29.985 
19:45	45.7	45.7	45.7	64	34.2	2	3	90	0.00	29.982 
19:50	45.5	45.5	45.5	66	34.8	1	3	112	0.00	29.982 
19:55	45.5	45.5	45.5	66	34.8	1	5	112	0.00	29.982 
20:00	45.2	45.2	45.2	67	34.9	1	3	112	0.00	29.981 
20:05	45.1	45.1	45.1	67	34.8	0	2	112	0.00	29.981 
20:10	44.9	44.9	44.9	69	35.4	1	3	112	0.00	29.981 
20:15	44.6	44.6	44.6	69	35.1	1	3	112	0.00	29.984 
20:20	44.5	44.5	44.5	71	35.7	1	3	90	0.00	29.984 
20:25	44.1	44.1	44.1	71	35.3	0	1	90	0.00	29.984 
20:30	43.6	43.6	43.6	73	35.5	0	0	---	0.00	29.985 
20:35	43.2	43.2	43.2	73	35.1	0	0	---	0.00	29.985 
20:40	42.8	42.8	42.8	74	35.1	0	0	---	0.00	29.985 
20:45	42.2	42.2	42.2	76	35.2	0	0	---	0.00	29.991 
20:50	41.8	41.8	41.8	76	34.8	0	0	---	0.00	29.991 
20:55	41.3	41.3	41.3	77	34.6	0	0	---	0.00	29.991 
21:00	40.8	40.8	40.8	78	34.5	0	0	---	0.00	29.995 
21:05	40.5	40.5	40.5	79	34.5	0	0	---	0.00	29.995 
21:10	40.1	40.1	40.1	81	34.7	0	0	---	0.00	29.995 
21:15	39.6	39.6	39.6	82	34.6	0	0	---	0.00	30.002 
21:20	39.3	39.3	39.3	82	34.3	0	0	---	0.00	30.002 
21:25	38.9	38.9	38.9	83	34.2	0	0	---	0.00	30.002 
21:30	38.6	38.6	38.6	84	34.2	0	0	---	0.00	30.006 
21:35	38.3	38.3	38.3	85	34.2	0	0	---	0.00	30.006 
21:40	38.0	38.0	38.0	85	33.9	0	0	---	0.00	30.006 
21:45	37.9	37.9	37.9	86	34.1	0	0	---	0.00	30.007 
21:50	37.8	37.8	37.8	86	34.0	0	0	---	0.00	30.007 
21:55	37.6	37.6	37.6	87	34.1	0	0	---	0.00	30.007 
22:00	37.5	37.5	37.5	87	34.0	0	0	---	0.00	30.008 
22:05	37.5	37.5	37.5	87	34.0	0	0	---	0.00	30.008 
22:10	37.3	37.3	37.3	87	33.8	0	0	---	0.00	30.008 
22:15	37.3	37.3	37.3	87	33.8	0	1	90	0.00	30.018 
22:20	37.3	37.3	37.3	86	33.5	0	0	---	0.00	30.018 
22:25	37.2	37.2	37.2	86	33.4	0	0	---	0.00	30.018 
22:30	37.0	37.0	37.0	86	33.2	0	0	---	0.00	30.015 
22:35	37.2	37.2	37.2	85	33.1	0	0	---	0.00	30.015 
22:40	37.2	37.2	37.2	84	32.8	0	0	---	0.00	30.015 
22:45	37.2	37.2	37.2	84	32.8	0	0	---	0.00	30.026 
22:50	37.2	37.2	37.2	83	32.5	0	0	---	0.00	30.026 
22:55	37.2	37.2	37.2	83	32.5	0	0	---	0.00	30.026 
23:00	36.9	36.9	36.9	83	32.2	0	0	---	0.00	30.035 
23:05	36.6	36.6	36.6	84	32.2	0	0	---	0.00	30.035 
23:10	36.3	36.3	36.3	84	31.9	0	0	---	0.00	30.035 
23:15	36.0	36.0	36.0	85	31.9	0	0	---	0.00	30.041 
23:20	35.9	35.9	35.9	85	31.8	0	0	---	0.00	30.041 
23:25	35.6	35.6	35.6	86	31.8	0	0	---	0.00	30.041 
23:30	35.5	35.5	35.5	86	31.7	0	0	---	0.00	30.045 
23:35	35.3	35.3	35.3	86	31.5	0	0	---	0.00	30.045 
23:40	35.3	35.3	35.3	86	31.5	0	0	---	0.00	30.045 
23:45	35.2	35.2	35.2	86	31.4	0	1	90	0.00	30.048 
23:50	35.0	35.0	35.0	86	31.2	0	1	90	0.00	30.048 
23:55	34.9	34.9	34.9	86	31.1	0	0	---	0.00	30.048 

CoCoRaHS
IN-AL-39
A2 Web Hosting
Creative Commons License
GoDaddy
Look for:

loaded 2017-12-12 07:10:42 • last modified 2010-11-18 10:43:29
Privacy PolicyDisclaimer
• wx.awcolley.com is powered by PmWiki v.2002016 •
• all content (unless otherwise noted) © 2017 A W Colley